createdAt,value
2018-11-20T00:01:29.090Z,45.83
2018-11-20T00:03:59.301Z,41.70
2018-11-20T00:06:28.366Z,47.38
2018-11-20T00:08:57.481Z,44.30
2018-11-20T00:11:26.560Z,47.62
2018-11-20T00:13:55.627Z,47.33
2018-11-20T00:19:00.381Z,44.17
2018-11-20T00:21:29.445Z,44.10
2018-11-20T00:23:58.526Z,38.80
2018-11-20T00:29:03.329Z,43.08
2018-11-20T00:31:33.412Z,42.40
2018-11-20T00:34:02.492Z,39.57
2018-11-20T00:36:31.561Z,41.33
2018-11-20T00:39:00.660Z,41.03
2018-11-20T00:41:29.741Z,42.22
2018-11-20T00:43:58.854Z,41.35
2018-11-20T00:46:28.105Z,42.83
2018-11-20T00:48:57.165Z,39.93
2018-11-20T00:51:26.243Z,36.30
2018-11-20T00:53:55.325Z,42.20
2018-11-20T00:59:02.082Z,42.13
2018-11-20T01:01:31.281Z,39.93
2018-11-20T01:04:00.474Z,44.67
2018-11-20T01:06:29.575Z,37.03
2018-11-20T01:08:59.540Z,37.20
2018-11-20T01:11:28.607Z,39.88
2018-11-20T01:13:57.662Z,38.67
2018-11-20T01:16:26.760Z,42.00
2018-11-20T01:18:55.813Z,41.00
2018-11-20T01:21:24.880Z,42.58
2018-11-20T01:23:53.990Z,35.90
2018-11-20T01:26:23.053Z,38.53
2018-11-20T01:28:52.127Z,37.80
2018-11-20T01:31:21.721Z,38.43
2018-11-20T01:33:50.774Z,44.60
2018-11-20T01:36:19.924Z,39.67
2018-11-20T01:38:50.084Z,39.70
2018-11-20T01:41:19.259Z,34.47
2018-11-20T01:43:48.511Z,37.50
2018-11-20T01:46:17.669Z,38.92
2018-11-20T01:48:46.775Z,37.70
2018-11-20T01:51:16.081Z,34.63
2018-11-20T01:53:45.095Z,38.55
2018-11-20T01:56:14.889Z,39.60
2018-11-20T01:58:43.961Z,35.33
2018-11-20T02:01:13.076Z,31.70
2018-11-20T02:03:42.475Z,40.97
2018-11-20T02:06:11.546Z,32.33
2018-11-20T02:08:40.617Z,32.60
2018-11-20T02:11:10.707Z,35.33
2018-11-20T02:13:40.102Z,40.45
2018-11-20T02:16:10.101Z,41.57
2018-11-20T02:18:41.467Z,39.17
2018-11-20T02:21:10.567Z,41.27
2018-11-20T02:23:39.786Z,36.40
2018-11-20T02:26:09.003Z,41.83
2018-11-20T02:28:38.049Z,35.47
2018-11-20T02:31:07.175Z,35.20
2018-11-20T02:33:36.240Z,40.85
2018-11-20T02:38:41.069Z,40.90
2018-11-20T02:41:10.408Z,38.90
2018-11-20T02:43:39.475Z,42.93
2018-11-20T02:46:08.590Z,41.13
2018-11-20T02:51:14.933Z,42.33
2018-11-20T02:53:44.637Z,36.00
2018-11-20T02:56:13.706Z,42.50
2018-11-20T02:58:43.645Z,39.60
2018-11-20T03:01:12.720Z,37.40
2018-11-20T03:03:42.915Z,38.70
2018-11-20T03:06:12.698Z,41.58
2018-11-20T03:14:08.352Z,43.38
2018-11-20T03:16:37.415Z,37.63
2018-11-20T03:19:07.470Z,39.40
2018-11-20T03:21:36.790Z,42.45
2018-11-20T03:24:05.931Z,43.80
2018-11-20T03:26:35.018Z,39.77
2018-11-20T03:29:04.136Z,42.10
2018-11-20T03:31:34.266Z,43.23
2018-11-20T03:34:03.389Z,40.90
2018-11-20T03:36:32.459Z,40.83
2018-11-20T03:39:01.522Z,41.85
2018-11-20T03:41:30.597Z,35.07
2018-11-20T03:43:59.937Z,41.63
2018-11-20T03:46:29.004Z,36.37
2018-11-20T03:48:58.225Z,36.07
2018-11-20T03:51:27.296Z,37.87
2018-11-20T03:53:56.370Z,37.20
2018-11-20T03:56:25.578Z,40.77
2018-11-20T03:58:54.641Z,42.35
2018-11-20T04:01:23.717Z,33.33
2018-11-20T04:03:52.765Z,39.97
2018-11-20T04:06:21.818Z,39.30
2018-11-20T04:08:51.041Z,35.57
2018-11-20T04:11:20.098Z,34.33
2018-11-20T04:13:49.167Z,37.10
2018-11-20T04:16:18.243Z,34.87
2018-11-20T04:18:47.289Z,39.42
2018-11-20T04:23:52.100Z,40.75
2018-11-20T04:26:21.325Z,34.90
2018-11-20T04:28:50.389Z,35.23
2018-11-20T04:34:27.842Z,39.58
2018-11-20T04:36:57.082Z,34.07
2018-11-20T04:39:26.136Z,33.40
2018-11-20T04:41:55.191Z,32.67
2018-11-20T04:44:24.231Z,35.20
2018-11-20T04:46:53.361Z,37.27
2018-11-20T04:49:22.434Z,32.10
2018-11-20T04:51:52.390Z,31.40
2018-11-20T04:54:22.373Z,35.00
2018-11-20T04:56:51.469Z,32.67
2018-11-20T04:59:20.538Z,36.92
2018-11-20T05:01:49.705Z,37.47
2018-11-20T05:04:18.770Z,33.10
2018-11-20T05:06:47.869Z,31.47
2018-11-20T05:09:18.821Z,37.37
2018-11-20T05:11:47.861Z,33.10
2018-11-20T05:14:16.918Z,36.35
2018-11-20T05:16:45.976Z,38.08
2018-11-20T05:19:15.017Z,33.10
2018-11-20T05:21:44.201Z,34.78
2018-11-20T05:24:13.270Z,34.97
2018-11-20T05:26:42.341Z,31.37
2018-11-20T05:29:11.536Z,35.75
2018-11-20T05:31:40.592Z,32.17
2018-11-20T05:34:09.688Z,32.77
2018-11-20T05:36:38.739Z,31.07
2018-11-20T05:39:07.804Z,30.63
2018-11-20T05:41:36.845Z,31.37
2018-11-20T05:44:05.931Z,37.50
2018-11-20T05:46:35.948Z,34.37
2018-11-20T05:49:05.934Z,30.13
2018-11-20T05:51:35.041Z,30.30
2018-11-20T05:54:04.093Z,30.50
2018-11-20T05:56:54.511Z,28.10
2018-11-20T05:59:25.579Z,28.17
2018-11-20T06:01:55.531Z,30.67
2018-11-20T06:04:24.683Z,31.40
2018-11-20T06:06:53.733Z,30.43
2018-11-20T06:09:24.552Z,30.53
2018-11-20T06:11:55.079Z,31.40
2018-11-20T06:17:01.908Z,34.58
2018-11-20T06:22:06.869Z,33.05
2018-11-20T06:24:35.950Z,28.07
2018-11-20T06:27:05.003Z,31.30
2018-11-20T06:29:34.072Z,29.17
2018-11-20T06:34:38.949Z,32.90
2018-11-20T06:37:08.005Z,27.67
2018-11-20T06:39:37.061Z,24.10
2018-11-20T06:44:41.958Z,28.92
2018-11-20T06:47:11.130Z,29.80
2018-11-20T06:49:40.079Z,27.53
2018-11-20T06:52:09.139Z,26.33
2018-11-20T06:54:38.204Z,27.37
2018-11-20T06:57:07.429Z,28.67
2018-11-20T07:02:12.297Z,27.48
2018-11-20T07:04:41.344Z,24.20
2018-11-20T07:07:10.579Z,25.73
2018-11-20T07:09:39.592Z,25.53
2018-11-20T07:12:08.819Z,23.77
2018-11-20T07:14:37.897Z,29.13
2018-11-20T07:17:06.941Z,27.63
2018-11-20T07:19:38.003Z,25.00
2018-11-20T07:22:07.045Z,22.60
2018-11-20T07:24:36.123Z,25.87
2018-11-20T07:27:05.835Z,23.87
2018-11-20T07:32:10.614Z,27.50
2018-11-20T07:34:42.344Z,22.77
2018-11-20T07:37:13.663Z,23.90
2018-11-20T07:39:43.652Z,20.37
2018-11-20T07:42:12.706Z,22.17
2018-11-20T07:44:44.524Z,20.92
2018-11-20T07:47:13.604Z,18.87
2018-11-20T07:49:43.631Z,16.73
2018-11-20T07:52:16.676Z,17.80
2018-11-20T07:54:45.725Z,18.13
2018-11-20T07:59:51.628Z,14.85
2018-11-20T08:02:21.276Z,13.03
2018-11-20T08:04:50.245Z,14.60
2018-11-20T08:09:55.082Z,14.23
2018-11-20T08:12:29.014Z,11.60
2018-11-20T08:14:59.192Z,12.70
2018-11-20T08:17:28.277Z,13.20
2018-11-20T08:19:57.329Z,13.70
2018-11-20T08:25:02.159Z,13.50
2018-11-20T08:27:31.355Z,13.27
2018-11-20T08:30:00.391Z,13.80
2018-11-20T08:32:29.510Z,16.48
2018-11-20T08:34:59.019Z,14.90
2018-11-20T08:37:28.079Z,13.30
2018-11-20T08:39:57.155Z,14.50
2018-11-20T08:45:01.900Z,14.40
2018-11-20T08:50:07.371Z,13.57
2018-11-20T08:52:36.416Z,13.55
2018-11-20T08:55:05.530Z,13.40
2018-11-20T08:57:34.581Z,12.60
2018-11-20T09:00:03.639Z,12.80
2018-11-20T09:02:32.935Z,13.07
2018-11-20T09:07:37.668Z,13.80
2018-11-20T09:10:07.734Z,11.47
2018-11-20T09:12:36.742Z,12.03
2018-11-20T09:15:06.784Z,9.73
2018-11-20T09:17:35.911Z,11.55
2018-11-20T09:20:05.057Z,12.17
2018-11-20T09:22:34.794Z,10.53
2018-11-20T09:27:40.032Z,11.83
2018-11-20T09:30:09.102Z,11.30
2018-11-20T09:32:38.157Z,10.63
2018-11-20T09:35:09.573Z,12.03
2018-11-20T09:42:53.149Z,10.73
2018-11-20T09:45:22.488Z,10.27
2018-11-20T09:47:51.534Z,10.33
2018-11-20T09:50:20.612Z,10.67
2018-11-20T09:52:50.837Z,10.97
2018-11-20T09:55:19.775Z,10.80
2018-11-20T09:57:49.737Z,9.90
2018-11-20T10:00:19.025Z,9.53
2018-11-20T10:02:55.640Z,11.03
2018-11-20T10:05:24.707Z,10.50
2018-11-20T10:07:53.927Z,10.27
2018-11-20T10:10:23.276Z,10.60
2018-11-20T10:15:28.143Z,10.10
2018-11-20T10:17:59.614Z,10.83
2018-11-20T10:20:28.677Z,10.03
2018-11-20T10:22:58.769Z,10.23
2018-11-20T10:25:28.342Z,10.50
2018-11-20T10:27:57.265Z,10.67
2018-11-20T10:30:26.358Z,9.87
2018-11-20T10:32:56.849Z,10.07
2018-11-20T10:35:26.033Z,10.13
2018-11-20T10:37:55.077Z,9.60
2018-11-20T10:40:24.475Z,10.60
2018-11-20T10:45:29.679Z,9.70
2018-11-20T10:50:34.944Z,9.30
2018-11-20T10:53:04.026Z,9.43
2018-11-20T10:55:33.103Z,9.77
2018-11-20T10:58:02.162Z,8.40
2018-11-20T11:00:31.231Z,8.60
2018-11-20T11:05:56.854Z,9.38
2018-11-20T11:11:12.759Z,9.00
2018-11-20T11:13:42.986Z,8.53
2018-11-20T11:16:13.001Z,8.67
2018-11-20T11:18:42.058Z,8.83
2018-11-20T11:21:11.671Z,8.87
2018-11-20T11:23:42.661Z,9.48
2018-11-20T11:28:51.291Z,9.10
2018-11-20T11:31:16.734Z,8.00
2018-11-20T11:33:47.387Z,8.23
2018-11-20T11:36:17.347Z,10.40
2018-11-20T11:41:23.915Z,8.83
2018-11-20T11:43:52.974Z,8.93
2018-11-20T11:46:22.311Z,9.02
2018-11-20T11:48:51.382Z,8.07
2018-11-20T11:51:23.738Z,8.75
2018-11-20T11:53:50.044Z,8.90
2018-11-20T11:56:19.109Z,9.07
2018-11-20T11:58:48.169Z,8.40
2018-11-20T12:01:18.003Z,8.73
